Bungo Princess — 3FXV8 — position and weather

sailwx.info

Track history (hours):
 
Tides and Currents Weather Stations Pressure Air Temp Water Temp Dewpoint Dewpoint Depression Visibility Wind Speed Wind Dir Waves Ship Positions

Bungo Princess

Last reported at 2014-Jul-21 07:28 UTC. Time now 2014-Jul-23 13:58 UTC.
Position N 35°59' E 120°33'.

Length 103 m; draft 5.3 m.

Type: Cargo ship. MMSI: 355091000.

Date/timePositionNaut miles runAvg speedWind from/ knotsBaromVisibWave heightAir tempDewpointWater temp
2014-Jul-21 07:28N 35°59' E 120°33'1111.8
2014-Jul-21 06:32N 36°02' E 120°19'3 0.1
2014-Jul-20 04:18N 36°03' E 120°16'7 9.0
2014-Jul-20 03:32N 36°01' E 120°24'1110.7
2014-Jul-20 02:33N 35°58' E 120°37'31210.0
2014-Jul-18 19:24N 31°00' E 122°28'3210.1
2014-Jul-18 16:15N 31°09' E 121°53'1014.8
2014-Jul-18 15:33N 31°17' E 121°44'1211.9
2014-Jul-18 14:33N 31°24' E 121°33'10 9.7
2014-Jul-18 13:33N 31°30' E 121°25'1312.7
2014-Jul-18 12:32N 31°39' E 121°13'1412.6
2014-Jul-18 11:24N 31°47' E 120°59'1011.1
2014-Jul-18 10:31N 31°55' E 120°53'1111.5
2014-Jul-18 09:33N 32°00' E 120°41'1212.3
2014-Jul-18 08:34N 32°01' E 120°27'4 3.7
2014-Jul-18 07:32N 31°58' E 120°24'0 0.0
2014-Jul-18 06:32N 31°58' E 120°24'0 0.0
2014-Jul-18 05:29N 31°58' E 120°24'0 0.0
2014-Jul-18 04:32N 31°58' E 120°24'0 0.0
2014-Jul-18 03:32N 31°58' E 120°24'0 0.0
2014-Jul-18 02:32N 31°58' E 120°24'0 0.0
2014-Jul-18 01:32N 31°58' E 120°24'0 0.0
2014-Jul-18 00:32N 31°58' E 120°24'0 0.0
2014-Jul-17 23:32N 31°58' E 120°24'0 0.0
2014-Jul-17 22:32N 31°58' E 120°24'0 0.0
2014-Jul-17 21:32N 31°58' E 120°24'0 0.0
2014-Jul-17 20:32N 31°58' E 120°24'0 0.0
2014-Jul-17 19:32N 31°58' E 120°24'0 0.0
2014-Jul-17 18:32N 31°58' E 120°24'0 0.0
2014-Jul-17 17:32N 31°58' E 120°24'0 0.0
2014-Jul-17 16:32N 31°58' E 120°24'0 0.0
2014-Jul-17 15:32N 31°58' E 120°24'0 0.0
2014-Jul-17 14:32N 31°58' E 120°24'0 0.0
2014-Jul-17 13:32N 31°58' E 120°24'0 0.0
2014-Jul-17 12:32N 31°58' E 120°24'0 0.0
2014-Jul-17 11:32N 31°58' E 120°24'0 0.0
2014-Jul-17 10:32N 31°58' E 120°24'0 0.0
2014-Jul-17 09:32N 31°58' E 120°24'4 3.9
2014-Jul-17 08:34N 32°01' E 120°27'8 8.4
2014-Jul-17 07:34N 31°60' E 120°36'7 6.4
2014-Jul-17 06:32N 31°60' E 120°44'0 0.0
2014-Jul-17 05:26N 31°60' E 120°44'0 0.0
2014-Jul-17 04:20N 31°60' E 120°44'0 0.1
2014-Jul-17 03:32N 31°60' E 120°44'0 0.0
2014-Jul-17 02:32N 31°60' E 120°44'0 0.0
2014-Jul-17 01:32N 31°60' E 120°44'0 0.1
2014-Jul-17 00:32N 31°60' E 120°44'0 0.0
2014-Jul-16 23:32N 31°60' E 120°44'0 0.1
2014-Jul-16 22:26N 31°60' E 120°44'0 0.0
2014-Jul-16 21:32N 31°60' E 120°44'0 0.0
2014-Jul-16 20:32N 31°60' E 120°44'0 0.1
2014-Jul-16 19:32N 31°60' E 120°44'0 0.1
2014-Jul-16 18:32N 31°60' E 120°44'0 0.0
2014-Jul-16 17:32N 31°60' E 120°44'0 0.1
2014-Jul-16 16:26N 31°60' E 120°44'0 0.1
2014-Jul-16 15:20N 31°60' E 120°44'0 0.1
2014-Jul-16 14:33N 31°60' E 120°44'1010.1
2014-Jul-16 13:33N 32°03' E 120°33'1211.6
2014-Jul-16 12:34N 31°59' E 120°20'5 5.4
2014-Jul-16 11:33N 31°56' E 120°15'0 0.0
2014-Jul-16 10:27N 31°56' E 120°15'0 0.0
2014-Jul-16 09:33N 31°56' E 120°15'0 0.0
2014-Jul-16 08:33N 31°56' E 120°15'0 0.0
2014-Jul-16 07:33N 31°56' E 120°15'0 0.0
2014-Jul-16 06:33N 31°56' E 120°15'0 0.0
2014-Jul-16 05:33N 31°56' E 120°15'0 0.0
2014-Jul-16 04:29N 31°56' E 120°15'0 0.0
2014-Jul-16 03:33N 31°56' E 120°15'0 0.0
2014-Jul-16 02:33N 31°56' E 120°15'0 0.0
2014-Jul-16 01:33N 31°56' E 120°15'0 0.0
2014-Jul-16 00:33N 31°56' E 120°15'0 0.0
2014-Jul-15 23:32N 31°56' E 120°15'0 0.0
2014-Jul-15 22:33N 31°56' E 120°15'0 0.0
2014-Jul-15 21:33N 31°56' E 120°15'0 0.0
2014-Jul-15 20:33N 31°56' E 120°15'0 0.0
2014-Jul-15 19:33N 31°56' E 120°15'0 0.0
2014-Jul-15 18:32N 31°56' E 120°15'0 0.0
2014-Jul-15 17:32N 31°56' E 120°15'0 0.0
2014-Jul-15 16:32N 31°56' E 120°15'0 0.0
2014-Jul-15 15:33N 31°56' E 120°15'0 0.0
2014-Jul-15 14:33N 31°56' E 120°15'0 0.0
2014-Jul-15 13:29N 31°56' E 120°15'0 0.0
2014-Jul-15 12:33N 31°56' E 120°15'0 0.0
2014-Jul-15 11:33N 31°56' E 120°15'0 0.0
2014-Jul-15 10:33N 31°56' E 120°15'0 0.0
2014-Jul-15 09:32N 31°56' E 120°15'0 0.0
2014-Jul-15 08:33N 31°56' E 120°15'0 0.0
2014-Jul-15 07:33N 31°56' E 120°15'0 0.0
2014-Jul-15 06:33N 31°56' E 120°15'1 0.7
2014-Jul-15 05:33N 31°56' E 120°15'8 8.1
2014-Jul-15 04:33N 32°01' E 120°23'0 0.4
2014-Jul-15 03:33N 32°01' E 120°24'0 0.0
2014-Jul-15 02:33N 32°01' E 120°24'0 0.0
2014-Jul-15 01:30N 32°01' E 120°24'0 0.0
2014-Jul-15 00:33N 32°01' E 120°24'0 0.0
2014-Jul-14 23:33N 32°01' E 120°24'0 0.1
2014-Jul-14 22:33N 32°01' E 120°24'0 0.1
2014-Jul-14 21:33N 32°01' E 120°24'0 0.0
2014-Jul-14 20:33N 32°01' E 120°24'0 0.1
2014-Jul-14 19:33N 32°01' E 120°24'0 0.1
2014-Jul-14 18:33N 32°01' E 120°24'0 0.0
2014-Jul-14 17:33N 32°01' E 120°24'0 0.0
2014-Jul-14 16:30N 32°01' E 120°24'0 0.0
2014-Jul-14 15:33N 32°01' E 120°24'0 0.0
2014-Jul-14 14:33N 32°01' E 120°24'0 0.0
2014-Jul-14 13:30N 32°01' E 120°24'0 0.0
2014-Jul-14 12:33N 32°01' E 120°24'0 0.0
2014-Jul-14 11:33N 32°01' E 120°24'0 0.0
2014-Jul-14 10:33N 32°01' E 120°24'0 0.0
2014-Jul-14 09:33N 32°01' E 120°24'0 0.0
2014-Jul-14 08:30N 32°01' E 120°24'0 0.0
2014-Jul-14 07:33N 32°01' E 120°24'0 0.0
2014-Jul-14 06:33N 32°01' E 120°24'0 0.1
2014-Jul-14 05:33N 32°01' E 120°24'0 0.0
2014-Jul-14 04:33N 32°01' E 120°24'0 0.0
2014-Jul-14 03:33N 32°01' E 120°24'0 0.0
2014-Jul-14 02:33N 32°01' E 120°24'0 0.0
2014-Jul-14 01:21N 32°01' E 120°24'0 0.0
2014-Jul-14 00:33N 32°01' E 120°24'0 0.0
2014-Jul-13 23:33N 32°01' E 120°24'0 0.0
2014-Jul-13 22:27N 32°01' E 120°24'0 0.1
2014-Jul-13 21:33N 32°01' E 120°24'0 0.0
2014-Jul-13 20:33N 32°01' E 120°24'0 0.0
2014-Jul-13 19:30N 32°01' E 120°24'0 0.1
2014-Jul-13 18:33N 32°01' E 120°24'0 0.1
2014-Jul-13 17:33N 32°01' E 120°24'0 0.0
2014-Jul-13 16:33N 32°01' E 120°24'0 0.1
2014-Jul-13 15:30N 32°01' E 120°24'0 0.0
2014-Jul-13 14:33N 32°01' E 120°24'0 0.1
2014-Jul-13 13:33N 32°01' E 120°24'0 0.4
2014-Jul-13 12:34N 32°01' E 120°24'8 7.9
2014-Jul-13 11:34N 32°03' E 120°33'9 8.6
2014-Jul-13 10:34N 32°00' E 120°43'9 8.9
2014-Jul-13 09:33N 31°56' E 120°52'1110.2
2014-Jul-13 08:31N 31°47' E 120°58'19 9.7
2014-Jul-13 06:32N 31°37' E 121°17'1211.8
2014-Jul-13 05:32N 31°29' E 121°27'9 9.2
2014-Jul-13 04:32N 31°23' E 121°35'1412.0
2014-Jul-13 03:22N 31°14' E 121°48'3410.3
2014-Jul-13 00:05N 31°01' E 122°25'  
Track history (hours):
 
Tides and Currents Weather Stations Pressure Air Temp Water Temp Dewpoint Dewpoint Depression Visibility Wind Speed Wind Dir Waves Ship Positions

Bungo Princess

Last reported at 2014-Jul-21 07:28 UTC. Time now 2014-Jul-23 13:58 UTC.
Position N 35°59' E 120°33'.

Length 103 m; draft 5.3 m.

Type: Cargo ship. MMSI: 355091000.

Date/timePositionNaut miles runAvg speedWind from/ knotsBaromVisibWave heightAir tempDewpointWater temp
2014-Jul-21 07:28N 35°59' E 120°33'1111.8
2014-Jul-21 06:32N 36°02' E 120°19'3 0.1
2014-Jul-20 04:18N 36°03' E 120°16'7 9.0
2014-Jul-20 03:32N 36°01' E 120°24'1110.7
2014-Jul-20 02:33N 35°58' E 120°37'31210.0
2014-Jul-18 19:24N 31°00' E 122°28'3210.1
2014-Jul-18 16:15N 31°09' E 121°53'1014.8
2014-Jul-18 15:33N 31°17' E 121°44'1211.9
2014-Jul-18 14:33N 31°24' E 121°33'10 9.7
2014-Jul-18 13:33N 31°30' E 121°25'1312.7
2014-Jul-18 12:32N 31°39' E 121°13'1412.6
2014-Jul-18 11:24N 31°47' E 120°59'1011.1
2014-Jul-18 10:31N 31°55' E 120°53'1111.5
2014-Jul-18 09:33N 32°00' E 120°41'1212.3
2014-Jul-18 08:34N 32°01' E 120°27'4 3.7
2014-Jul-18 07:32N 31°58' E 120°24'0 0.0
2014-Jul-18 06:32N 31°58' E 120°24'0 0.0
2014-Jul-18 05:29N 31°58' E 120°24'0 0.0
2014-Jul-18 04:32N 31°58' E 120°24'0 0.0
2014-Jul-18 03:32N 31°58' E 120°24'0 0.0
2014-Jul-18 02:32N 31°58' E 120°24'0 0.0
2014-Jul-18 01:32N 31°58' E 120°24'0 0.0
2014-Jul-18 00:32N 31°58' E 120°24'0 0.0
2014-Jul-17 23:32N 31°58' E 120°24'0 0.0
2014-Jul-17 22:32N 31°58' E 120°24'0 0.0
2014-Jul-17 21:32N 31°58' E 120°24'0 0.0
2014-Jul-17 20:32N 31°58' E 120°24'0 0.0
2014-Jul-17 19:32N 31°58' E 120°24'0 0.0
2014-Jul-17 18:32N 31°58' E 120°24'0 0.0
2014-Jul-17 17:32N 31°58' E 120°24'0 0.0
2014-Jul-17 16:32N 31°58' E 120°24'0 0.0
2014-Jul-17 15:32N 31°58' E 120°24'0 0.0
2014-Jul-17 14:32N 31°58' E 120°24'0 0.0
2014-Jul-17 13:32N 31°58' E 120°24'0 0.0
2014-Jul-17 12:32N 31°58' E 120°24'0 0.0
2014-Jul-17 11:32N 31°58' E 120°24'0 0.0
2014-Jul-17 10:32N 31°58' E 120°24'0 0.0
2014-Jul-17 09:32N 31°58' E 120°24'4 3.9
2014-Jul-17 08:34N 32°01' E 120°27'8 8.4
2014-Jul-17 07:34N 31°60' E 120°36'7 6.4
2014-Jul-17 06:32N 31°60' E 120°44'0 0.0
2014-Jul-17 05:26N 31°60' E 120°44'0 0.0
2014-Jul-17 04:20N 31°60' E 120°44'0 0.1
2014-Jul-17 03:32N 31°60' E 120°44'0 0.0
2014-Jul-17 02:32N 31°60' E 120°44'0 0.0
2014-Jul-17 01:32N 31°60' E 120°44'0 0.1
2014-Jul-17 00:32N 31°60' E 120°44'0 0.0
2014-Jul-16 23:32N 31°60' E 120°44'0 0.1
2014-Jul-16 22:26N 31°60' E 120°44'0 0.0
2014-Jul-16 21:32N 31°60' E 120°44'0 0.0
2014-Jul-16 20:32N 31°60' E 120°44'0 0.1
2014-Jul-16 19:32N 31°60' E 120°44'0 0.1
2014-Jul-16 18:32N 31°60' E 120°44'0 0.0
2014-Jul-16 17:32N 31°60' E 120°44'0 0.1
2014-Jul-16 16:26N 31°60' E 120°44'0 0.1
2014-Jul-16 15:20N 31°60' E 120°44'0 0.1
2014-Jul-16 14:33N 31°60' E 120°44'1010.1
2014-Jul-16 13:33N 32°03' E 120°33'1211.6
2014-Jul-16 12:34N 31°59' E 120°20'5 5.4
2014-Jul-16 11:33N 31°56' E 120°15'0 0.0
2014-Jul-16 10:27N 31°56' E 120°15'0 0.0
2014-Jul-16 09:33N 31°56' E 120°15'0 0.0
2014-Jul-16 08:33N 31°56' E 120°15'0 0.0
2014-Jul-16 07:33N 31°56' E 120°15'0 0.0
2014-Jul-16 06:33N 31°56' E 120°15'0 0.0
2014-Jul-16 05:33N 31°56' E 120°15'0 0.0
2014-Jul-16 04:29N 31°56' E 120°15'0 0.0
2014-Jul-16 03:33N 31°56' E 120°15'0 0.0
2014-Jul-16 02:33N 31°56' E 120°15'0 0.0
2014-Jul-16 01:33N 31°56' E 120°15'0 0.0
2014-Jul-16 00:33N 31°56' E 120°15'0 0.0
2014-Jul-15 23:32N 31°56' E 120°15'0 0.0
2014-Jul-15 22:33N 31°56' E 120°15'0 0.0
2014-Jul-15 21:33N 31°56' E 120°15'0 0.0
2014-Jul-15 20:33N 31°56' E 120°15'0 0.0
2014-Jul-15 19:33N 31°56' E 120°15'0 0.0
2014-Jul-15 18:32N 31°56' E 120°15'0 0.0
2014-Jul-15 17:32N 31°56' E 120°15'0 0.0
2014-Jul-15 16:32N 31°56' E 120°15'0 0.0
2014-Jul-15 15:33N 31°56' E 120°15'0 0.0
2014-Jul-15 14:33N 31°56' E 120°15'0 0.0
2014-Jul-15 13:29N 31°56' E 120°15'0 0.0
2014-Jul-15 12:33N 31°56' E 120°15'0 0.0
2014-Jul-15 11:33N 31°56' E 120°15'0 0.0
2014-Jul-15 10:33N 31°56' E 120°15'0 0.0
2014-Jul-15 09:32N 31°56' E 120°15'0 0.0
2014-Jul-15 08:33N 31°56' E 120°15'0 0.0
2014-Jul-15 07:33N 31°56' E 120°15'0 0.0
2014-Jul-15 06:33N 31°56' E 120°15'1 0.7
2014-Jul-15 05:33N 31°56' E 120°15'8 8.1
2014-Jul-15 04:33N 32°01' E 120°23'0 0.4
2014-Jul-15 03:33N 32°01' E 120°24'0 0.0
2014-Jul-15 02:33N 32°01' E 120°24'0 0.0
2014-Jul-15 01:30N 32°01' E 120°24'0 0.0
2014-Jul-15 00:33N 32°01' E 120°24'0 0.0
2014-Jul-14 23:33N 32°01' E 120°24'0 0.1
2014-Jul-14 22:33N 32°01' E 120°24'0 0.1
2014-Jul-14 21:33N 32°01' E 120°24'0 0.0
2014-Jul-14 20:33N 32°01' E 120°24'0 0.1
2014-Jul-14 19:33N 32°01' E 120°24'0 0.1
2014-Jul-14 18:33N 32°01' E 120°24'0 0.0
2014-Jul-14 17:33N 32°01' E 120°24'0 0.0
2014-Jul-14 16:30N 32°01' E 120°24'0 0.0
2014-Jul-14 15:33N 32°01' E 120°24'0 0.0
2014-Jul-14 14:33N 32°01' E 120°24'0 0.0
2014-Jul-14 13:30N 32°01' E 120°24'0 0.0
2014-Jul-14 12:33N 32°01' E 120°24'0 0.0
2014-Jul-14 11:33N 32°01' E 120°24'0 0.0
2014-Jul-14 10:33N 32°01' E 120°24'0 0.0
2014-Jul-14 09:33N 32°01' E 120°24'0 0.0
2014-Jul-14 08:30N 32°01' E 120°24'0 0.0
2014-Jul-14 07:33N 32°01' E 120°24'0 0.0
2014-Jul-14 06:33N 32°01' E 120°24'0 0.1
2014-Jul-14 05:33N 32°01' E 120°24'0 0.0
2014-Jul-14 04:33N 32°01' E 120°24'0 0.0
2014-Jul-14 03:33N 32°01' E 120°24'0 0.0
2014-Jul-14 02:33N 32°01' E 120°24'0 0.0
2014-Jul-14 01:21N 32°01' E 120°24'0 0.0
2014-Jul-14 00:33N 32°01' E 120°24'0 0.0
2014-Jul-13 23:33N 32°01' E 120°24'0 0.0
2014-Jul-13 22:27N 32°01' E 120°24'0 0.1
2014-Jul-13 21:33N 32°01' E 120°24'0 0.0
2014-Jul-13 20:33N 32°01' E 120°24'0 0.0
2014-Jul-13 19:30N 32°01' E 120°24'0 0.1
2014-Jul-13 18:33N 32°01' E 120°24'0 0.1
2014-Jul-13 17:33N 32°01' E 120°24'0 0.0
2014-Jul-13 16:33N 32°01' E 120°24'0 0.1
2014-Jul-13 15:30N 32°01' E 120°24'0 0.0
2014-Jul-13 14:33N 32°01' E 120°24'0 0.1
2014-Jul-13 13:33N 32°01' E 120°24'0 0.4
2014-Jul-13 12:34N 32°01' E 120°24'8 7.9
2014-Jul-13 11:34N 32°03' E 120°33'9 8.6
2014-Jul-13 10:34N 32°00' E 120°43'9 8.9
2014-Jul-13 09:33N 31°56' E 120°52'1110.2
2014-Jul-13 08:31N 31°47' E 120°58'19 9.7
2014-Jul-13 06:32N 31°37' E 121°17'1211.8
2014-Jul-13 05:32N 31°29' E 121°27'9 9.2
2014-Jul-13 04:32N 31°23' E 121°35'1412.0
2014-Jul-13 03:22N 31°14' E 121°48'3410.3
2014-Jul-13 00:05N 31°01' E 122°25'  

Dump ship's entire track history